createdAt,value
2022-12-20T00:00:25.743Z,-4.11
2022-12-20T00:03:28.627Z,-4.12
2022-12-20T00:06:31.415Z,-4.10
2022-12-20T00:09:34.455Z,-4.10
2022-12-20T00:12:36.989Z,-4.07
2022-12-20T00:15:39.811Z,-4.06
2022-12-20T00:18:42.684Z,-4.03
2022-12-20T00:21:45.472Z,-4.02
2022-12-20T00:24:47.922Z,-3.97
2022-12-20T00:27:51.258Z,-3.92
2022-12-20T00:30:54.903Z,-3.91
2022-12-20T00:33:59.071Z,-3.87
2022-12-20T00:37:01.631Z,-3.86
2022-12-20T00:40:06.360Z,-3.84
2022-12-20T00:43:08.945Z,-3.87
2022-12-20T00:46:15.201Z,-3.86
2022-12-20T00:49:17.821Z,-3.83
2022-12-20T00:52:20.669Z,-3.84
2022-12-20T00:55:23.241Z,-3.81
2022-12-20T00:58:26.955Z,-3.79
2022-12-20T01:01:32.062Z,-3.79
2022-12-20T01:04:35.152Z,-3.77
2022-12-20T01:07:38.089Z,-3.79
2022-12-20T01:10:42.416Z,-3.79
2022-12-20T01:13:47.335Z,-3.80
2022-12-20T01:16:50.285Z,-3.74
2022-12-20T01:19:52.916Z,-3.74
2022-12-20T01:22:55.691Z,-3.75
2022-12-20T01:26:00.224Z,-3.72
2022-12-20T01:29:03.852Z,-3.68
2022-12-20T01:32:07.160Z,-3.70
2022-12-20T01:35:10.160Z,-3.72
2022-12-20T01:38:13.054Z,-3.69
2022-12-20T01:41:21.128Z,-3.68
2022-12-20T01:44:23.532Z,-3.72
2022-12-20T01:47:27.449Z,-3.71
2022-12-20T01:50:29.999Z,-3.69
2022-12-20T01:53:32.909Z,-3.69
2022-12-20T01:56:35.745Z,-3.71
2022-12-20T01:59:41.127Z,-3.80
2022-12-20T02:02:47.064Z,-3.65
2022-12-20T02:05:50.034Z,-3.63
2022-12-20T02:08:54.831Z,-3.63
2022-12-20T02:12:09.674Z,-3.61
2022-12-20T02:15:31.714Z,-3.62
2022-12-20T02:18:48.585Z,-3.62
2022-12-20T02:22:17.571Z,-3.87
2022-12-20T02:25:41.760Z,-3.46
2022-12-20T02:28:54.075Z,-3.40
2022-12-20T02:32:17.555Z,-3.39
2022-12-20T02:35:24.232Z,-3.42
2022-12-20T02:38:29.010Z,-3.36
2022-12-20T02:41:40.058Z,-3.40
2022-12-20T02:45:15.400Z,-3.38
2022-12-20T02:48:18.833Z,-3.37
2022-12-20T02:51:23.835Z,-3.36
2022-12-20T02:54:27.168Z,-3.37
2022-12-20T02:57:57.857Z,-3.37
2022-12-20T03:01:08.088Z,-3.39
2022-12-20T03:04:11.413Z,-3.38
2022-12-20T03:07:15.346Z,-3.41
2022-12-20T03:10:20.127Z,-3.42
2022-12-20T03:13:24.195Z,-3.48
2022-12-20T03:16:26.996Z,-3.39
2022-12-20T03:19:30.208Z,-3.42
2022-12-20T03:22:33.729Z,-3.44
2022-12-20T03:25:36.917Z,-3.45
2022-12-20T03:28:39.956Z,-3.40
2022-12-20T03:31:43.517Z,-3.31
2022-12-20T03:34:46.655Z,-3.26
2022-12-20T03:37:49.725Z,-3.26
2022-12-20T03:40:52.427Z,-3.24
2022-12-20T03:43:56.078Z,-3.27
2022-12-20T03:46:58.788Z,-3.23
2022-12-20T03:50:02.357Z,-3.14
2022-12-20T03:53:06.551Z,-3.15
2022-12-20T03:56:09.824Z,-3.11
2022-12-20T03:59:12.561Z,-3.06
2022-12-20T04:02:16.184Z,-3.06
2022-12-20T04:05:19.657Z,-3.20
2022-12-20T04:08:22.107Z,-3.15
2022-12-20T04:11:25.648Z,-3.24
2022-12-20T04:14:28.572Z,-3.30
2022-12-20T04:17:31.717Z,-3.27
2022-12-20T04:20:35.115Z,-3.27
2022-12-20T04:23:41.366Z,-3.26
2022-12-20T04:26:44.198Z,-3.23
2022-12-20T04:29:47.255Z,-3.21
2022-12-20T04:32:54.690Z,-3.24
2022-12-20T04:35:58.287Z,-3.26
2022-12-20T04:39:01.409Z,-3.23
2022-12-20T04:42:06.143Z,-3.21
2022-12-20T04:45:09.266Z,-3.23
2022-12-20T04:48:46.127Z,-3.32
2022-12-20T04:51:34.699Z,-3.27
2022-12-20T04:54:38.158Z,-3.22
2022-12-20T04:57:40.830Z,-3.29
2022-12-20T05:00:44.014Z,-3.28
2022-12-20T05:03:48.212Z,-3.24
2022-12-20T05:06:51.957Z,-3.20
2022-12-20T05:09:55.200Z,-3.16
2022-12-20T05:12:58.172Z,-3.19
2022-12-20T05:16:04.008Z,-3.18
2022-12-20T05:19:07.567Z,-3.19
2022-12-20T05:22:30.950Z,-3.12
2022-12-20T05:25:54.185Z,-3.13
2022-12-20T05:28:57.527Z,-3.11
2022-12-20T05:32:00.836Z,-3.12
2022-12-20T05:35:03.758Z,-3.13
2022-12-20T05:38:07.164Z,-3.10
2022-12-20T05:41:11.054Z,-3.10
2022-12-20T05:44:14.838Z,-3.14
2022-12-20T05:47:18.036Z,-3.17
2022-12-20T05:50:22.434Z,-3.21
2022-12-20T05:53:37.448Z,-3.44
2022-12-20T05:56:41.316Z,-3.25
2022-12-20T05:59:44.361Z,-3.27
2022-12-20T06:02:48.335Z,-3.31
2022-12-20T06:05:51.471Z,-3.29
2022-12-20T06:08:56.194Z,-3.31
2022-12-20T06:12:01.361Z,-3.29
2022-12-20T06:15:05.478Z,-3.28
2022-12-20T06:18:08.627Z,-3.30
2022-12-20T06:21:11.492Z,-3.30
2022-12-20T06:24:14.369Z,-3.27
2022-12-20T06:27:18.761Z,-3.31
2022-12-20T06:30:28.829Z,-3.31
2022-12-20T06:33:34.941Z,-3.37
2022-12-20T06:36:37.846Z,-3.42
2022-12-20T06:39:42.758Z,-3.45
2022-12-20T06:42:45.726Z,-3.43
2022-12-20T06:45:48.812Z,-3.40
2022-12-20T06:48:51.716Z,-3.44
2022-12-20T06:51:55.009Z,-3.45
2022-12-20T06:54:58.708Z,-1.77
2022-12-20T06:58:01.454Z,-1.78
2022-12-20T07:01:04.688Z,-2.47
2022-12-20T07:04:07.524Z,-2.78
2022-12-20T07:07:12.215Z,-3.02
2022-12-20T07:10:14.954Z,-3.13
2022-12-20T07:13:17.746Z,-3.16
2022-12-20T07:16:20.295Z,-3.21
2022-12-20T07:19:23.188Z,-3.16
2022-12-20T07:22:25.655Z,-3.12
2022-12-20T07:25:28.841Z,-3.07
2022-12-20T07:28:31.499Z,-3.01
2022-12-20T07:31:34.424Z,-2.98
2022-12-20T07:34:37.545Z,-3.02
2022-12-20T07:37:40.875Z,-2.92
2022-12-20T07:40:43.900Z,-3.07
2022-12-20T07:43:47.276Z,-2.86
2022-12-20T07:46:50.059Z,-2.81
2022-12-20T07:49:52.969Z,-2.78
2022-12-20T07:52:55.969Z,-2.76
2022-12-20T07:56:00.674Z,-2.75
2022-12-20T07:59:03.590Z,-1.57
2022-12-20T08:02:12.253Z,-2.13
2022-12-20T08:05:15.875Z,-1.29
2022-12-20T08:08:18.997Z,-1.81
2022-12-20T08:11:22.496Z,-1.95
2022-12-20T08:14:25.235Z,-2.11
2022-12-20T08:17:28.048Z,-2.23
2022-12-20T08:20:30.655Z,-2.19
2022-12-20T08:23:33.589Z,-2.11
2022-12-20T08:26:40.144Z,-2.14
2022-12-20T08:29:42.989Z,-2.25
2022-12-20T08:32:45.568Z,-2.22
2022-12-20T08:35:48.356Z,-2.21
2022-12-20T08:38:50.879Z,-2.23
2022-12-20T08:41:53.934Z,-2.19
2022-12-20T08:44:56.611Z,-2.13
2022-12-20T08:47:59.646Z,-2.06
2022-12-20T08:51:10.105Z,-1.99
2022-12-20T08:54:13.055Z,-1.96
2022-12-20T08:57:15.578Z,-1.87
2022-12-20T09:00:18.938Z,-1.85
2022-12-20T09:03:21.557Z,-1.71
2022-12-20T09:06:24.728Z,-1.60
2022-12-20T09:09:27.450Z,-1.40
2022-12-20T09:12:30.258Z,-1.19
2022-12-20T09:15:34.869Z,-0.98
2022-12-20T09:18:37.759Z,-0.88
2022-12-20T09:21:40.553Z,-0.63
2022-12-20T09:24:43.331Z,-0.55
2022-12-20T09:27:45.825Z,-0.46
2022-12-20T09:30:48.910Z,-0.23
2022-12-20T09:33:57.987Z,-0.23
2022-12-20T09:37:01.201Z,-0.30
2022-12-20T09:40:04.840Z,0.06
2022-12-20T09:43:09.515Z,0.14
2022-12-20T09:46:14.832Z,0.39
2022-12-20T09:49:19.245Z,0.42
2022-12-20T09:53:06.415Z,0.50
2022-12-20T09:56:21.089Z,0.92
2022-12-20T09:59:23.727Z,0.89
2022-12-20T10:02:56.629Z,1.16
2022-12-20T10:05:55.347Z,1.20
2022-12-20T10:09:01.143Z,1.49
2022-12-20T10:12:30.360Z,1.49
2022-12-20T10:15:46.521Z,1.65
2022-12-20T10:18:52.401Z,1.88
2022-12-20T10:21:57.130Z,1.80
2022-12-20T10:25:17.798Z,1.72
2022-12-20T10:28:26.382Z,1.90
2022-12-20T10:31:29.489Z,1.76
2022-12-20T10:34:37.532Z,1.98
2022-12-20T10:38:13.379Z,2.17
2022-12-20T10:41:23.218Z,2.52
2022-12-20T10:44:27.981Z,2.67
2022-12-20T10:47:40.923Z,2.80
2022-12-20T10:50:43.775Z,2.76
2022-12-20T10:54:02.410Z,2.62
2022-12-20T10:57:25.246Z,2.73
2022-12-20T11:00:29.815Z,2.63
2022-12-20T11:03:32.887Z,2.22
2022-12-20T11:06:38.286Z,2.19
2022-12-20T11:09:53.208Z,2.10
2022-12-20T11:12:57.380Z,1.70
2022-12-20T11:16:01.801Z,1.49
2022-12-20T11:19:15.742Z,1.44
2022-12-20T11:22:21.634Z,1.37
2022-12-20T11:26:06.364Z,1.24
2022-12-20T11:29:25.439Z,1.28
2022-12-20T11:32:50.841Z,1.16
2022-12-20T11:36:04.597Z,1.10
2022-12-20T11:39:18.842Z,1.10
2022-12-20T11:42:37.034Z,1.16
2022-12-20T11:45:54.936Z,1.05
2022-12-20T11:49:11.262Z,1.12
2022-12-20T11:52:22.767Z,1.24
2022-12-20T11:55:29.782Z,1.14
2022-12-20T11:58:34.731Z,1.33
2022-12-20T12:02:03.146Z,1.48
2022-12-20T12:05:08.056Z,1.45
2022-12-20T12:08:18.537Z,1.45
2022-12-20T12:15:07.775Z,1.83
2022-12-20T12:18:22.290Z,2.03
2022-12-20T12:21:56.711Z,2.11
2022-12-20T12:25:02.312Z,2.24
2022-12-20T12:28:05.574Z,2.40
2022-12-20T12:31:18.444Z,2.32
2022-12-20T12:34:47.722Z,1.79
2022-12-20T12:38:05.885Z,1.51
2022-12-20T12:41:33.358Z,1.18
2022-12-20T12:44:48.703Z,0.89
2022-12-20T12:48:05.224Z,0.71
2022-12-20T12:51:08.411Z,0.50
2022-12-20T12:54:29.549Z,0.54
2022-12-20T12:57:55.606Z,0.44
2022-12-20T13:01:03.679Z,0.39
2022-12-20T13:04:19.717Z,0.30
2022-12-20T13:07:26.838Z,0.25
2022-12-20T13:10:31.434Z,0.10
2022-12-20T13:13:34.545Z,-0.02
2022-12-20T13:17:10.687Z,-0.14
2022-12-20T13:20:02.205Z,-0.26
2022-12-20T13:23:07.778Z,-0.27
2022-12-20T13:26:47.703Z,-0.25
2022-12-20T13:29:59.582Z,-0.23
2022-12-20T13:33:38.731Z,-0.20
2022-12-20T13:36:42.203Z,-0.20
2022-12-20T13:39:47.832Z,-0.33
2022-12-20T13:42:52.419Z,-0.40
2022-12-20T13:45:56.007Z,-0.46
2022-12-20T13:49:12.105Z,-0.60
2022-12-20T13:52:34.182Z,-0.60
2022-12-20T13:55:39.301Z,-0.62
2022-12-20T13:58:43.812Z,-0.70
2022-12-20T14:01:52.005Z,-0.68
2022-12-20T14:05:13.619Z,-0.75
2022-12-20T14:08:19.206Z,-0.76
2022-12-20T14:11:26.946Z,-0.85
2022-12-20T14:14:29.785Z,-0.93
2022-12-20T14:17:33.466Z,-0.95
2022-12-20T14:20:37.237Z,-0.96
2022-12-20T14:23:41.001Z,-1.07
2022-12-20T14:26:48.110Z,-1.00
2022-12-20T14:29:52.094Z,-1.03
2022-12-20T14:32:56.671Z,-1.06
2022-12-20T14:36:16.350Z,-1.22
2022-12-20T14:39:26.243Z,-1.16
2022-12-20T14:42:36.662Z,-1.18
2022-12-20T14:45:39.151Z,-1.17
2022-12-20T14:48:42.023Z,-1.22
2022-12-20T14:51:45.832Z,-0.17
2022-12-20T14:55:11.013Z,0.01
2022-12-20T14:58:28.028Z,-0.25
2022-12-20T15:01:33.900Z,-0.70
2022-12-20T15:04:39.798Z,-0.91
2022-12-20T15:07:42.706Z,-1.08
2022-12-20T15:10:53.569Z,-1.17
2022-12-20T15:13:56.865Z,-1.26
2022-12-20T15:16:59.629Z,-1.32
2022-12-20T15:20:02.527Z,-1.39
2022-12-20T15:23:04.989Z,-1.40
2022-12-20T15:26:11.397Z,-1.47
2022-12-20T15:29:19.581Z,-1.39
2022-12-20T15:32:30.936Z,-1.41
2022-12-20T15:35:33.764Z,-1.46
2022-12-20T15:42:00.874Z,-1.49
2022-12-20T15:45:04.130Z,-1.48
2022-12-20T15:48:12.992Z,-1.48
2022-12-20T15:51:31.028Z,-1.61
2022-12-20T15:54:36.444Z,-1.54
2022-12-20T15:57:39.351Z,-1.58
2022-12-20T16:00:46.664Z,-1.52
2022-12-20T16:03:51.821Z,-1.54
2022-12-20T16:06:54.765Z,-0.15
2022-12-20T16:09:57.558Z,0.32
2022-12-20T16:13:00.217Z,-0.40
2022-12-20T16:16:03.134Z,-0.79
2022-12-20T16:19:05.784Z,-1.04
2022-12-20T16:22:15.515Z,-1.25
2022-12-20T16:25:33.402Z,-1.38
2022-12-20T16:28:36.433Z,-1.43
2022-12-20T16:31:42.303Z,-1.47
2022-12-20T16:34:45.680Z,-1.48
2022-12-20T16:37:48.484Z,-1.52
2022-12-20T16:40:53.816Z,-1.59
2022-12-20T16:43:58.622Z,-1.61
2022-12-20T16:47:01.469Z,-1.59
2022-12-20T16:50:04.473Z,-1.63
2022-12-20T16:53:11.764Z,-1.66
2022-12-20T16:56:18.418Z,-1.74
2022-12-20T16:59:24.562Z,-1.68
2022-12-20T17:02:32.411Z,-1.69
2022-12-20T17:05:36.877Z,-1.71
2022-12-20T17:12:06.783Z,-1.75
2022-12-20T17:15:18.933Z,-1.77
2022-12-20T17:18:22.126Z,-1.78
2022-12-20T17:25:05.207Z,-1.74
2022-12-20T17:28:07.904Z,-1.76
2022-12-20T17:31:39.109Z,-1.74
2022-12-20T17:34:46.882Z,-1.73
2022-12-20T17:37:52.256Z,-1.73
2022-12-20T17:41:00.998Z,-1.70
2022-12-20T17:44:05.710Z,-1.70
2022-12-20T17:47:08.378Z,-1.69
2022-12-20T17:50:16.496Z,-1.69
2022-12-20T17:53:19.018Z,-1.70
2022-12-20T17:56:27.686Z,-1.68
2022-12-20T17:59:30.685Z,-1.70
2022-12-20T18:02:36.930Z,-1.71
2022-12-20T18:05:40.139Z,-1.77
2022-12-20T18:08:43.257Z,-1.73
2022-12-20T18:11:46.611Z,-1.73
2022-12-20T18:14:50.737Z,-1.77
2022-12-20T18:17:53.541Z,-1.79
2022-12-20T18:21:07.792Z,-1.79
2022-12-20T18:24:12.340Z,-1.80
2022-12-20T18:27:15.055Z,-1.84
2022-12-20T18:30:18.492Z,-1.85
2022-12-20T18:33:21.052Z,-1.86
2022-12-20T18:36:26.804Z,-1.88
2022-12-20T18:39:32.094Z,-1.88
2022-12-20T18:42:35.004Z,-1.89
2022-12-20T18:45:37.537Z,-1.90
2022-12-20T18:48:41.171Z,-1.95
2022-12-20T18:51:43.941Z,-1.93
2022-12-20T18:54:46.697Z,-1.96
2022-12-20T18:57:49.276Z,-1.97
2022-12-20T19:00:52.935Z,-2.00
2022-12-20T19:03:56.210Z,-1.99
2022-12-20T19:06:59.057Z,-1.99
2022-12-20T19:10:01.684Z,-2.00
2022-12-20T19:13:06.232Z,-1.98
2022-12-20T19:16:18.352Z,-1.95
2022-12-20T19:19:21.416Z,-1.96
2022-12-20T19:22:24.102Z,-1.95
2022-12-20T19:25:28.045Z,-1.95
2022-12-20T19:28:31.415Z,-1.92
2022-12-20T19:31:36.575Z,-1.91
2022-12-20T19:34:39.457Z,-1.91
2022-12-20T19:37:43.714Z,-1.94
2022-12-20T19:40:52.364Z,-1.93
2022-12-20T19:43:56.574Z,-1.96
2022-12-20T19:47:06.004Z,-1.99
2022-12-20T19:50:09.473Z,-1.99
2022-12-20T19:53:12.645Z,-2.01
2022-12-20T19:56:17.490Z,-2.07
2022-12-20T19:59:21.071Z,-2.05
2022-12-20T20:02:24.846Z,-2.06
2022-12-20T20:05:27.945Z,-2.07
2022-12-20T20:08:31.808Z,-2.05
2022-12-20T20:11:34.829Z,-2.05
2022-12-20T20:14:37.428Z,-2.03
2022-12-20T20:17:40.308Z,-2.10
2022-12-20T20:20:43.600Z,-2.00
2022-12-20T20:23:47.228Z,-2.04
2022-12-20T20:26:49.782Z,-1.99
2022-12-20T20:29:52.705Z,-1.99
2022-12-20T20:32:55.457Z,-1.99
2022-12-20T20:36:00.266Z,-2.00
2022-12-20T20:39:02.941Z,-1.98
2022-12-20T20:42:06.251Z,-1.98
2022-12-20T20:45:09.334Z,-1.99
2022-12-20T20:48:12.933Z,-1.99
2022-12-20T20:51:15.900Z,-1.99
2022-12-20T20:54:18.909Z,-1.98
2022-12-20T20:57:21.500Z,-1.96
2022-12-20T21:00:25.369Z,-1.97
2022-12-20T21:03:29.219Z,-1.94
2022-12-20T21:06:39.768Z,-1.95
2022-12-20T21:09:43.431Z,-1.97
2022-12-20T21:12:46.540Z,-1.99
2022-12-20T21:15:49.175Z,-2.00
2022-12-20T21:18:53.690Z,-2.02
2022-12-20T21:21:56.273Z,-2.01
2022-12-20T21:25:00.356Z,-2.04
2022-12-20T21:28:03.024Z,-2.06
2022-12-20T21:31:11.513Z,-2.07
2022-12-20T21:34:14.227Z,-2.10
2022-12-20T21:37:17.831Z,-2.09
2022-12-20T21:40:22.295Z,-2.14
2022-12-20T21:43:25.101Z,-2.09
2022-12-20T21:46:29.522Z,-2.07
2022-12-20T21:49:33.748Z,-2.06
2022-12-20T21:52:36.475Z,-2.03
2022-12-20T21:55:42.294Z,-2.00
2022-12-20T21:58:45.331Z,-1.98
2022-12-20T22:01:48.412Z,-1.97
2022-12-20T22:04:51.454Z,-1.98
2022-12-20T22:07:54.261Z,-1.96
2022-12-20T22:11:06.402Z,-1.99
2022-12-20T22:14:12.806Z,-2.01
2022-12-20T22:17:17.292Z,-2.01
2022-12-20T22:20:20.092Z,-2.03
2022-12-20T22:23:23.003Z,-2.03
2022-12-20T22:26:28.110Z,-2.01
2022-12-20T22:29:31.067Z,-2.02
2022-12-20T22:32:33.749Z,-2.00
2022-12-20T22:35:36.527Z,-2.00
2022-12-20T22:38:39.166Z,-2.01
2022-12-20T22:41:42.029Z,-2.01
2022-12-20T22:44:44.771Z,-1.98
2022-12-20T22:47:47.732Z,-2.00
2022-12-20T22:50:57.545Z,-2.01
2022-12-20T22:54:00.587Z,-2.01
2022-12-20T22:57:03.221Z,-2.04
2022-12-20T23:00:06.972Z,-2.03
2022-12-20T23:03:09.744Z,-1.98
2022-12-20T23:06:15.393Z,-1.98
2022-12-20T23:09:17.908Z,-1.99
2022-12-20T23:12:39.593Z,-1.96
2022-12-20T23:15:42.135Z,-1.95
2022-12-20T23:18:44.956Z,-1.90
2022-12-20T23:22:06.171Z,-1.95
2022-12-20T23:25:14.448Z,-1.92
2022-12-20T23:28:17.027Z,-1.91
2022-12-20T23:31:20.077Z,-1.92
2022-12-20T23:34:23.389Z,-1.91
2022-12-20T23:37:26.152Z,-1.87
2022-12-20T23:40:32.245Z,-1.82
2022-12-20T23:43:35.333Z,-1.84
2022-12-20T23:46:38.275Z,-1.83
2022-12-20T23:49:41.164Z,-1.85
2022-12-20T23:52:43.705Z,-1.82
2022-12-20T23:56:06.192Z,-1.84
2022-12-20T23:59:08.925Z,-1.85
